Time;durP1;ratioP1;P1;durP2;ratioP2;P2;SDS_P1;SDS_P2;PMS_P1;PMS_P2;Temp;Humidity;BMP_temperature;BMP_pressure;BME280_temperature;BME280_humidity;BME280_pressure;Samples;Min_cycle;Max_cycle;Signal;HPM_P1;HPM_P2
2023/05/07 00:00:15;;;;;;;;;;;;;;;22.33;56.84;97221.17;632723;224;67339;-60
2023/05/07 00:02:44;;;;;;;;;;;;;;;22.33;57.23;97217.70;632805;224;65000;-61
2023/05/07 00:05:12;;;;;;;;;;;;;;;22.31;57.19;97212.60;632757;224;62884;-61
2023/05/07 00:07:40;;;;;;;;;;;;;;;22.31;56.17;97222.52;632743;224;64965;-61
2023/05/07 00:10:08;;;;;;;;;;;;;;;22.31;57.17;97222.52;632674;224;67052;-61
2023/05/07 00:12:35;;;;;;;;;;;;;;;22.30;56.35;97224.40;632748;224;65065;-61
2023/05/07 00:15:03;;;;;;;;;;;;;;;22.29;55.68;97221.98;632788;224;67167;-61
2023/05/07 00:17:31;;;;;;;;;;;;;;;22.29;57.00;97222.81;632812;224;66806;-59
2023/05/07 00:19:59;;;;;;;;;;;;;;;22.29;56.07;97221.98;632763;223;62901;-59
2023/05/07 00:22:26;;;;;;;;;;;;;;;22.29;56.77;97227.34;632721;224;65884;-59
2023/05/07 00:24:54;;;;;;;;;;;;;;;22.29;57.32;97227.34;632728;224;65373;-59
2023/05/07 00:27:21;;;;;;;;;;;;;;;22.27;56.28;97218.80;632746;224;65018;-61
2023/05/07 00:29:49;;;;;;;;;;;;;;;22.28;56.35;97220.39;632795;224;67183;-61
2023/05/07 00:32:16;;;;;;;;;;;;;;;22.27;56.13;97214.24;632743;224;67683;-61
2023/05/07 00:34:44;;;;;;;;;;;;;;;22.26;56.67;97218.00;632759;224;64879;-61
2023/05/07 00:37:12;;;;;;;;;;;;;;;22.25;56.76;97219.06;632714;224;64745;-61
2023/05/07 00:39:39;;;;;;;;;;;;;;;22.26;57.37;97220.68;632771;224;64798;-61
2023/05/07 00:42:07;;;;;;;;;;;;;;;22.25;57.00;97219.06;632810;224;62911;-61
2023/05/07 00:44:35;;;;;;;;;;;;;;;22.24;56.47;97217.47;632773;224;66938;-61
2023/05/07 00:47:04;;;;;;;;;;;;;;;22.24;55.57;97220.15;632760;224;67029;-61
2023/05/07 00:49:36;;;;;;;;;;;;;;;22.23;57.51;97218.52;632708;224;65021;-61
2023/05/07 00:52:04;;;;;;;;;;;;;;;22.23;56.35;97217.73;632749;224;64800;-59
2023/05/07 00:54:31;;;;;;;;;;;;;;;22.22;55.94;97216.14;632793;224;67045;-59
2023/05/07 00:56:59;;;;;;;;;;;;;;;22.22;57.16;97218.81;632748;224;62774;-59
2023/05/07 00:59:26;;;;;;;;;;;;;;;22.22;56.16;97222.29;632755;224;67206;-59
2023/05/07 01:01:54;;;;;;;;;;;;;;;22.22;57.05;97222.29;632773;224;64760;-59
2023/05/07 01:04:21;;;;;;;;;;;;;;;22.21;55.61;97220.70;632778;224;65076;-59
2023/05/07 01:06:49;;;;;;;;;;;;;;;22.21;55.41;97230.58;632854;224;64600;-59
2023/05/07 01:09:17;;;;;;;;;;;;;;;22.21;56.95;97225.22;632714;224;64438;-59
2023/05/07 01:11:45;;;;;;;;;;;;;;;22.20;56.46;97229.78;632788;224;65065;-59
2023/05/07 01:14:12;;;;;;;;;;;;;;;22.20;56.08;97229.78;632738;224;64503;-59
2023/05/07 01:16:41;;;;;;;;;;;;;;;22.19;55.99;97230.87;632746;224;66805;-59
2023/05/07 01:19:11;;;;;;;;;;;;;;;22.19;57.33;97230.87;632745;224;62455;-59
2023/05/07 01:21:39;;;;;;;;;;;;;;;22.18;56.33;97237.31;632822;224;64731;-59
2023/05/07 01:24:07;;;;;;;;;;;;;;;22.18;56.47;97231.95;632750;224;67316;-59
2023/05/07 01:26:35;;;;;;;;;;;;;;;22.17;56.78;97236.45;632760;224;64999;-59
2023/05/07 01:29:02;;;;;;;;;;;;;;;22.17;57.14;97227.63;632709;224;64742;-59
2023/05/07 01:31:30;;;;;;;;;;;;;;;22.15;54.99;97230.59;632758;224;64219;-59
2023/05/07 01:33:59;;;;;;;;;;;;;;;22.17;56.05;97232.98;632758;224;65629;-59
2023/05/07 01:36:28;;;;;;;;;;;;;;;22.15;56.34;97227.92;632742;224;64994;-59
2023/05/07 01:38:57;;;;;;;;;;;;;;;22.14;56.53;97231.65;632708;224;65347;-59
2023/05/07 01:41:25;;;;;;;;;;;;;;;22.14;55.84;97230.85;632738;224;65033;-59
2023/05/07 01:43:53;;;;;;;;;;;;;;;22.15;56.45;97227.09;632735;224;67320;-59
2023/05/07 01:46:20;;;;;;;;;;;;;;;22.14;57.67;97228.97;632763;224;66948;-59
2023/05/07 01:48:48;;;;;;;;;;;;;;;22.13;57.87;97223.91;632774;224;65023;-60
2023/05/07 01:51:20;;;;;;;;;;;;;;;22.13;56.26;97222.03;632782;224;67107;-61
2023/05/07 01:53:50;;;;;;;;;;;;;;;22.13;55.83;97224.70;632790;224;66978;-61
2023/05/07 01:56:16;;;;;;;;;;;;;;;22.12;56.02;97223.08;632732;223;65734;-61
2023/05/07 01:58:45;;;;;;;;;;;;;;;22.12;56.50;97217.73;632830;224;66897;-61
2023/05/07 02:01:14;;;;;;;;;;;;;;;22.11;55.83;97215.34;632829;224;65041;-61
2023/05/07 02:03:42;;;;;;;;;;;;;;;22.10;56.54;97214.55;632757;224;65231;-61
2023/05/07 02:06:11;;;;;;;;;;;;;;;22.11;57.44;97209.98;632721;224;44464;-61
2023/05/07 02:08:40;;;;;;;;;;;;;;;22.09;56.47;97204.90;632693;224;67708;-59
2023/05/07 02:11:08;;;;;;;;;;;;;;;22.10;57.43;97208.40;632739;224;62930;-59
2023/05/07 02:13:36;;;;;;;;;;;;;;;22.09;56.13;97201.42;632848;224;67595;-59
2023/05/07 02:16:04;;;;;;;;;;;;;;;22.09;56.59;97201.42;632585;224;67098;-59
2023/05/07 02:18:31;;;;;;;;;;;;;;;22.09;57.51;97199.55;632773;224;65163;-59
2023/05/07 02:20:59;;;;;;;;;;;;;;;22.09;57.08;97201.42;632804;224;67927;-59
2023/05/07 02:23:26;;;;;;;;;;;;;;;22.07;57.43;97190.19;632749;224;67539;-59
2023/05/07 02:25:54;;;;;;;;;;;;;;;22.08;56.12;97191.80;632804;224;65682;-59
2023/05/07 02:28:22;;;;;;;;;;;;;;;22.06;56.32;97192.06;632716;224;67951;-59
2023/05/07 02:30:54;;;;;;;;;;;;;;;22.06;56.75;97186.71;631432;224;48082;-60
2023/05/07 02:33:22;;;;;;;;;;;;;;;22.08;57.27;97183.77;632671;224;64990;-60
2023/05/07 02:35:51;;;;;;;;;;;;;;;22.06;56.95;97185.91;632730;224;66953;-58
2023/05/07 02:38:19;;;;;;;;;;;;;;;22.05;55.57;97182.45;632832;224;67042;-59
2023/05/07 02:40:46;;;;;;;;;;;;;;;22.05;57.53;97182.45;632772;224;65038;-58
2023/05/07 02:43:14;;;;;;;;;;;;;;;22.05;57.38;97187.00;632732;224;67198;-59
2023/05/07 02:45:43;;;;;;;;;;;;;;;22.04;57.01;97182.70;632817;224;44103;-59
2023/05/07 02:48:11;;;;;;;;;;;;;;;22.04;56.37;97190.73;632729;224;65848;-60
2023/05/07 02:50:39;;;;;;;;;;;;;;;22.04;57.33;97188.05;632727;224;64736;-60
2023/05/07 02:53:06;;;;;;;;;;;;;;;22.03;57.06;97183.79;632799;224;67316;-60
2023/05/07 02:55:34;;;;;;;;;;;;;;;22.03;57.60;97183.79;632781;224;64935;-60
2023/05/07 02:58:02;;;;;;;;;;;;;;;22.03;57.10;97183.79;632738;224;64513;-60
2023/05/07 03:00:31;;;;;;;;;;;;;;;22.02;56.90;97184.88;632856;224;44752;-62
2023/05/07 03:03:16;;;;;;;;;;;;;;;22.02;56.32;97190.23;632307;224;46163;-60
2023/05/07 03:05:44;;;;;;;;;;;;;;;22.01;56.55;97188.61;632805;224;67145;-61
2023/05/07 03:08:11;;;;;;;;;;;;;;;22.01;56.65;97189.41;632768;224;66981;-61
2023/05/07 03:10:39;;;;;;;;;;;;;;;22.00;57.65;97187.02;631004;224;62778;-61
2023/05/07 03:13:07;;;;;;;;;;;;;;;21.99;57.72;97180.05;630558;225;66862;-61
2023/05/07 03:15:34;;;;;;;;;;;;;;;21.99;56.10;97185.39;630540;225;66972;-61
2023/05/07 03:18:02;;;;;;;;;;;;;;;21.98;57.16;97178.45;630585;225;62786;-60
2023/05/07 03:20:30;;;;;;;;;;;;;;;21.99;56.37;97182.72;630595;225;67875;-59
2023/05/07 03:22:57;;;;;;;;;;;;;;;21.98;56.56;97179.25;630548;225;66882;-59
2023/05/07 03:25:24;;;;;;;;;;;;;;;21.97;55.77;97176.86;630556;225;62718;-59
2023/05/07 03:27:52;;;;;;;;;;;;;;;21.97;57.02;97183.01;630542;225;64905;-59
2023/05/07 03:30:21;;;;;;;;;;;;;;;21.97;56.31;97187.56;630561;225;67022;-59
2023/05/07 03:32:48;;;;;;;;;;;;;;;21.98;57.02;97183.80;630583;225;65197;-59
2023/05/07 03:35:18;;;;;;;;;;;;;;;21.96;56.61;97189.41;630576;225;67094;-59
2023/05/07 03:37:45;;;;;;;;;;;;;;;21.95;56.64;97193.17;630553;225;64848;-58
2023/05/07 03:40:13;;;;;;;;;;;;;;;21.95;57.68;97185.95;630548;225;63730;-58
2023/05/07 03:42:42;;;;;;;;;;;;;;;21.95;57.37;97185.15;630445;224;45554;-59
2023/05/07 03:45:11;;;;;;;;;;;;;;;21.95;57.19;97190.50;630604;225;67353;-59
2023/05/07 03:47:40;;;;;;;;;;;;;;;21.94;56.58;97189.70;630507;225;62484;-59
2023/05/07 03:50:10;;;;;;;;;;;;;;;21.93;57.02;97184.61;630458;225;67568;-59
2023/05/07 03:52:37;;;;;;;;;;;;;;;21.93;57.22;97188.11;630518;225;64836;-59
2023/05/07 03:55:06;;;;;;;;;;;;;;;21.93;57.89;97184.61;625270;225;66393;-59
2023/05/07 03:57:34;;;;;;;;;;;;;;;21.93;57.03;97189.97;630617;225;65104;-59
2023/05/07 04:00:03;;;;;;;;;;;;;;;21.92;56.76;97188.37;630538;225;66822;-59
2023/05/07 04:02:33;;;;;;;;;;;;;;;21.91;56.58;97190.25;630548;225;65067;-60
2023/05/07 04:05:01;;;;;;;;;;;;;;;21.91;56.30;97192.13;630540;225;64826;-59
2023/05/07 04:07:29;;;;;;;;;;;;;;;21.90;57.48;97188.63;630530;225;67702;-61
2023/05/07 04:09:56;;;;;;;;;;;;;;;21.90;56.74;97196.66;631534;224;64969;-61
2023/05/07 04:12:24;;;;;;;;;;;;;;;21.89;57.02;97197.75;632814;224;67891;-61
2023/05/07 04:14:52;;;;;;;;;;;;;;;21.89;56.37;97197.75;632765;224;64883;-61
2023/05/07 04:17:19;;;;;;;;;;;;;;;21.89;56.37;97194.27;632746;224;65003;-61
2023/05/07 04:19:47;;;;;;;;;;;;;;;21.89;57.42;97207.65;632741;224;68115;-61
2023/05/07 04:22:15;;;;;;;;;;;;;;;21.89;57.91;97210.33;632725;224;66906;-61
2023/05/07 04:24:42;;;;;;;;;;;;;;;21.88;56.35;97209.53;632856;224;65059;-61
2023/05/07 04:27:10;;;;;;;;;;;;;;;21.87;54.94;97204.44;632753;224;67329;-61
2023/05/07 04:29:41;;;;;;;;;;;;;;;21.88;57.91;97216.73;632725;224;64303;-61
2023/05/07 04:32:07;;;;;;;;;;;;;;;21.88;57.91;97219.41;632655;224;65280;-61
2023/05/07 04:34:35;;;;;;;;;;;;;;;21.88;58.13;97232.78;632709;224;67941;-61
2023/05/07 04:37:02;;;;;;;;;;;;;;;21.87;57.42;97231.20;632769;224;67422;-61
2023/05/07 04:39:30;;;;;;;;;;;;;;;21.86;57.59;97227.72;632802;224;64565;-61
2023/05/07 04:41:58;;;;;;;;;;;;;;;21.86;57.14;97232.28;625831;224;67356;-61
2023/05/07 04:44:25;;;;;;;;;;;;;;;21.86;56.53;97232.28;632754;224;64843;-61
2023/05/07 04:46:53;;;;;;;;;;;;;;;21.84;57.74;97229.86;632754;224;65113;-61
2023/05/07 04:49:20;;;;;;;;;;;;;;;21.84;57.71;97226.39;632731;224;67922;-61
2023/05/07 04:51:50;;;;;;;;;;;;;;;21.83;57.37;97230.94;632794;224;67747;-61
2023/05/07 04:54:19;;;;;;;;;;;;;;;21.83;56.62;97228.27;632764;224;63963;-61
2023/05/07 04:56:46;;;;;;;;;;;;;;;21.83;57.38;97236.30;632728;224;65118;-60
2023/05/07 04:59:14;;;;;;;;;;;;;;;21.83;57.15;97241.64;632783;224;64816;-60
2023/05/07 05:01:42;;;;;;;;;;;;;;;21.83;57.74;97238.97;632716;224;65855;-60
2023/05/07 05:04:10;;;;;;;;;;;;;;;21.82;57.17;97239.23;632787;224;66995;-60
2023/05/07 05:06:37;;;;;;;;;;;;;;;21.82;56.33;97240.02;632743;224;64836;-58
2023/05/07 05:09:05;;;;;;;;;;;;;;;21.81;55.39;97238.43;632695;223;65860;-59
2023/05/07 05:11:33;;;;;;;;;;;;;;;21.81;58.09;97235.75;632765;224;67950;-58
2023/05/07 05:14:01;;;;;;;;;;;;;;;21.81;57.39;97242.98;632801;224;66415;-58
2023/05/07 05:16:29;;;;;;;;;;;;;;;21.80;56.44;97231.48;632803;224;62749;-58
2023/05/07 05:18:56;;;;;;;;;;;;;;;21.80;56.95;97230.66;632754;224;64307;-58
2023/05/07 05:21:24;;;;;;;;;;;;;;;21.79;57.35;97235.22;632782;224;67583;-58
2023/05/07 05:23:56;;;;;;;;;;;;;;;21.78;56.01;97233.63;632794;224;42162;-58
2023/05/07 05:26:24;;;;;;;;;;;;;;;21.79;56.73;97240.56;632797;224;67302;-59
2023/05/07 05:28:52;;;;;;;;;;;;;;;21.79;58.09;97235.22;632760;224;65559;-59
2023/05/07 05:31:21;;;;;;;;;;;;;;;21.77;56.00;97229.36;632841;224;62480;-59
2023/05/07 05:33:49;;;;;;;;;;;;;;;21.78;57.37;97238.98;632793;224;66774;-59
2023/05/07 05:36:17;;;;;;;;;;;;;;;21.77;57.61;97232.03;632760;224;66848;-59
2023/05/07 05:38:45;;;;;;;;;;;;;;;21.77;57.57;97231.20;632815;224;62573;-59
2023/05/07 05:41:16;;;;;;;;;;;;;;;21.76;57.48;97235.76;632772;224;67316;-60
2023/05/07 05:43:43;;;;;;;;;;;;;;;21.76;57.60;97238.44;632810;224;66877;-59
2023/05/07 05:46:11;;;;;;;;;;;;;;;21.76;57.62;97234.97;632757;224;66035;-59
2023/05/07 05:48:39;;;;;;;;;;;;;;;21.75;57.72;97234.17;632767;224;68023;-59
2023/05/07 05:51:10;;;;;;;;;;;;;;;21.75;57.41;97236.84;632764;224;48084;-59
2023/05/07 05:53:37;;;;;;;;;;;;;;;21.75;57.64;97234.17;632778;224;65083;-59
2023/05/07 05:56:07;;;;;;;;;;;;;;;21.75;58.17;97242.19;632806;224;67764;-60
2023/05/07 05:58:35;;;;;;;;;;;;;;;21.73;57.06;97237.10;632755;224;64881;-59
2023/05/07 06:01:05;;;;;;;;;;;;;;;21.73;57.06;97239.77;632830;224;43641;-59
2023/05/07 06:03:36;;;;;;;;;;;;;;;21.72;57.43;97243.53;632630;224;47864;-59
2023/05/07 06:06:05;;;;;;;;;;;;;;;21.73;57.77;97241.66;632793;224;45266;-60
2023/05/07 06:08:33;;;;;;;;;;;;;;;21.72;56.80;97240.06;632760;224;65034;-60
2023/05/07 06:11:02;;;;;;;;;;;;;;;21.71;54.54;97243.79;632707;224;67202;-60
2023/05/07 06:13:30;;;;;;;;;;;;;;;21.71;56.39;97249.14;632777;224;67164;-60
2023/05/07 06:15:57;;;;;;;;;;;;;;;21.70;57.08;97253.69;632736;224;66139;-60
2023/05/07 06:18:25;;;;;;;;;;;;;;;21.71;57.56;97243.79;632795;224;67057;-60
2023/05/07 06:20:54;;;;;;;;;;;;;;;21.71;58.35;97246.46;625682;224;68071;-60
2023/05/07 06:23:23;;;;;;;;;;;;;;;21.71;57.31;97246.46;632813;224;41741;-62
2023/05/07 06:25:52;;;;;;;;;;;;;;;21.70;58.00;97240.32;632780;224;65728;-60
2023/05/07 06:28:22;;;;;;;;;;;;;;;21.70;57.57;97240.32;632817;224;45223;-62
2023/05/07 06:30:50;;;;;;;;;;;;;;;21.72;59.01;97245.41;632758;224;65786;-61
2023/05/07 06:33:20;;;;;;;;;;;;;;;21.71;58.84;97238.44;632753;224;64150;-61
2023/05/07 06:35:49;;;;;;;;;;;;;;;21.71;58.44;97241.11;632816;224;67220;-61
2023/05/07 06:38:17;;;;;;;;;;;;;;;21.71;59.02;97235.77;632853;224;65950;-61
2023/05/07 06:40:47;;;;;;;;;;;;;;;21.70;59.24;97232.30;632809;224;67007;-61
2023/05/07 06:43:15;;;;;;;;;;;;;;;21.71;58.12;97230.41;632784;224;65249;-61
2023/05/07 06:45:44;;;;;;;;;;;;;;;21.70;57.75;97226.95;632615;224;47013;-61
2023/05/07 06:48:12;;;;;;;;;;;;;;;21.69;58.38;97228.03;632797;224;64165;-61
2023/05/07 06:50:55;;;;;;;;;;;;;;;21.70;58.33;97221.59;632690;224;44007;-61
2023/05/07 06:53:25;;;;;;;;;;;;;;;21.71;59.81;97225.86;632816;224;65639;-60
2023/05/07 06:55:54;;;;;;;;;;;;;;;21.70;59.39;97215.45;632725;224;66689;-60
2023/05/07 06:58:23;;;;;;;;;;;;;;;21.71;58.84;97214.37;632763;224;66726;-60
2023/05/07 07:00:50;;;;;;;;;;;;;;;21.70;57.60;97218.13;632618;224;65031;-60
2023/05/07 07:03:20;;;;;;;;;;;;;;;21.70;58.64;97212.77;632787;224;46990;-62
2023/05/07 07:05:54;;;;;;;;;;;;;;;21.70;58.52;97223.47;632793;224;44018;-60
2023/05/07 07:08:22;;;;;;;;;;;;;;;21.71;59.24;97227.73;632808;224;65201;-60
2023/05/07 07:10:50;;;;;;;;;;;;;;;21.69;59.30;97222.67;632681;224;66933;-60
2023/05/07 07:13:19;;;;;;;;;;;;;;;21.69;59.47;97225.35;625815;224;68040;-60
2023/05/07 07:15:46;;;;;;;;;;;;;;;21.69;59.48;97220.00;632774;224;65116;-60
2023/05/07 07:18:14;;;;;;;;;;;;;;;21.68;56.51;97218.38;632849;224;66871;-62
2023/05/07 07:20:44;;;;;;;;;;;;;;;21.68;58.38;97215.70;632791;224;65562;-60
2023/05/07 07:23:12;;;;;;;;;;;;;;;21.68;59.17;97212.23;632760;224;63062;-60
2023/05/07 07:25:42;;;;;;;;;;;;;;;21.68;57.62;97220.27;625775;224;68219;-60
2023/05/07 07:28:10;;;;;;;;;;;;;;;21.68;57.72;97225.61;632779;224;65482;-60
2023/05/07 07:30:45;;;;;;;;;;;;;;;21.68;57.77;97220.27;632801;224;46273;-60
2023/05/07 07:33:22;;;;;;;;;;;;;;;21.69;58.32;97221.88;632754;224;46588;-61
2023/05/07 07:35:58;;;;;;;;;;;;;;;21.68;58.21;97228.28;631900;224;47822;-61
2023/05/07 07:38:29;;;;;;;;;;;;;;;21.67;57.69;97224.02;626085;224;65069;-61
2023/05/07 07:41:07;;;;;;;;;;;;;;;21.67;57.73;97226.69;632831;224;47805;-61
2023/05/07 07:43:35;;;;;;;;;;;;;;;21.66;58.59;97228.57;632813;224;66565;-61
2023/05/07 07:46:04;;;;;;;;;;;;;;;21.67;58.59;97226.69;632752;224;62463;-61
2023/05/07 07:48:31;;;;;;;;;;;;;;;21.66;56.86;97217.88;632818;224;66756;-61
2023/05/07 07:50:59;;;;;;;;;;;;;;;21.67;58.66;97215.99;632756;224;64550;-61
2023/05/07 07:53:27;;;;;;;;;;;;;;;21.65;57.24;97216.25;632778;224;65177;-61
2023/05/07 07:55:56;;;;;;;;;;;;;;;21.66;57.23;97217.05;632783;224;67322;-61
2023/05/07 07:58:24;;;;;;;;;;;;;;;21.66;58.12;97214.38;632793;224;67327;-61
2023/05/07 08:00:52;;;;;;;;;;;;;;;21.66;58.48;97217.88;632793;224;65702;-61
2023/05/07 08:03:20;;;;;;;;;;;;;;;21.66;59.25;97209.02;632764;224;66790;-61
2023/05/07 08:05:51;;;;;;;;;;;;;;;21.65;58.71;97212.78;632800;224;67102;-61
2023/05/07 08:08:18;;;;;;;;;;;;;;;21.66;59.34;97217.05;632791;224;64937;-61
2023/05/07 08:10:46;;;;;;;;;;;;;;;21.65;58.92;97210.11;632706;224;67304;-61
2023/05/07 08:13:15;;;;;;;;;;;;;;;21.64;57.96;97209.31;632617;224;44158;-61
2023/05/07 08:15:43;;;;;;;;;;;;;;;21.65;59.31;97207.43;632736;224;65926;-61
2023/05/07 08:18:11;;;;;;;;;;;;;;;21.65;58.07;97218.92;632759;224;67525;-61
2023/05/07 08:20:39;;;;;;;;;;;;;;;21.64;57.83;97217.34;632811;224;66747;-61
2023/05/07 08:23:09;;;;;;;;;;;;;;;21.65;58.56;97212.78;632775;224;65638;-61
2023/05/07 08:25:38;;;;;;;;;;;;;;;21.64;58.68;97217.34;632741;224;64627;-61
2023/05/07 08:28:06;;;;;;;;;;;;;;;21.64;58.27;97216.53;632805;224;66983;-61
2023/05/07 08:30:33;;;;;;;;;;;;;;;21.63;57.94;97206.89;632773;224;65018;-61
2023/05/07 08:33:01;;;;;;;;;;;;;;;21.64;59.44;97211.98;632792;224;67529;-61
2023/05/07 08:35:29;;;;;;;;;;;;;;;21.63;57.92;97204.22;632786;224;64710;-61
2023/05/07 08:37:56;;;;;;;;;;;;;;;21.64;58.94;97205.84;632763;224;63792;-61
2023/05/07 08:40:26;;;;;;;;;;;;;;;21.62;58.46;97206.09;632792;224;67514;-61
2023/05/07 08:42:54;;;;;;;;;;;;;;;21.63;58.67;97205.02;632781;224;66937;-61
2023/05/07 08:45:23;;;;;;;;;;;;;;;21.63;59.26;97204.22;632756;224;63007;-61
2023/05/07 08:47:53;;;;;;;;;;;;;;;21.62;58.57;97202.63;632767;224;66775;-61
2023/05/07 08:50:21;;;;;;;;;;;;;;;21.61;59.07;97201.83;632786;224;67117;-61
2023/05/07 08:52:49;;;;;;;;;;;;;;;21.61;58.11;97198.36;632769;224;65114;-61
2023/05/07 08:55:17;;;;;;;;;;;;;;;21.62;58.62;97203.42;632786;224;63802;-61
2023/05/07 08:57:45;;;;;;;;;;;;;;;21.62;59.14;97199.95;632851;224;66687;-61
2023/05/07 09:00:14;;;;;;;;;;;;;;;21.60;57.94;97196.73;632802;224;63669;-61
2023/05/07 09:02:42;;;;;;;;;;;;;;;21.61;57.86;97198.36;632809;224;64811;-61
2023/05/07 09:05:13;;;;;;;;;;;;;;;21.61;59.20;97195.69;632743;224;49594;-61
2023/05/07 09:07:40;;;;;;;;;;;;;;;21.60;58.55;97188.72;632819;224;67086;-61
2023/05/07 09:10:08;;;;;;;;;;;;;;;21.59;58.79;97177.22;632737;223;64216;-61
2023/05/07 09:12:36;;;;;;;;;;;;;;;21.59;58.47;97184.45;632783;224;66802;-61
2023/05/07 09:15:05;;;;;;;;;;;;;;;21.59;56.57;97184.45;632801;224;65428;-61
2023/05/07 09:17:33;;;;;;;;;;;;;;;21.59;58.68;97185.25;632792;224;64723;-61
2023/05/07 09:20:05;;;;;;;;;;;;;;;21.60;59.09;97194.86;632833;224;66468;-61
2023/05/07 09:22:33;;;;;;;;;;;;;;;21.58;58.22;97188.17;632838;224;65165;-62
2023/05/07 09:25:02;;;;;;;;;;;;;;;21.58;58.52;97191.67;632793;224;44781;-61
2023/05/07 09:27:31;;;;;;;;;;;;;;;21.58;58.66;97175.63;632848;224;67257;-61
2023/05/07 09:29:58;;;;;;;;;;;;;;;21.57;58.15;97183.91;632792;224;65032;-61
2023/05/07 09:32:27;;;;;;;;;;;;;;;21.57;59.69;97184.70;632828;224;67516;-61
2023/05/07 09:34:57;;;;;;;;;;;;;;;21.57;58.09;97183.91;632817;224;66854;-61
2023/05/07 09:37:26;;;;;;;;;;;;;;;21.56;57.77;97177.77;632830;224;64994;-61
2023/05/07 09:39:54;;;;;;;;;;;;;;;21.57;59.21;97173.21;632816;224;66683;-61
2023/05/07 09:42:30;;;;;;;;;;;;;;;21.57;58.84;97165.19;632829;224;65134;-61
2023/05/07 09:44:56;;;;;;;;;;;;;;;21.56;57.99;97167.06;632765;224;45183;-61
2023/05/07 09:47:27;;;;;;;;;;;;;;;21.55;58.23;97164.66;632904;224;51702;-61
2023/05/07 09:49:57;;;;;;;;;;;;;;;21.56;58.89;97166.27;632604;224;66735;-61
2023/05/07 09:52:33;;;;;;;;;;;;;;;21.55;59.55;97167.33;632799;224;62910;-61
2023/05/07 09:54:59;;;;;;;;;;;;;;;21.55;59.30;97165.45;632576;224;66921;-61
2023/05/07 09:57:28;;;;;;;;;;;;;;;21.55;59.49;97165.45;632788;224;67313;-61
2023/05/07 09:59:58;;;;;;;;;;;;;;;21.55;58.46;97162.77;632834;224;42075;-61
2023/05/07 10:02:28;;;;;;;;;;;;;;;21.54;58.29;97169.20;632850;224;65623;-61
2023/05/07 10:04:56;;;;;;;;;;;;;;;21.55;58.98;97161.98;632809;224;65286;-61
2023/05/07 10:07:25;;;;;;;;;;;;;;;21.54;58.70;97150.48;632750;224;43834;-61
2023/05/07 10:09:55;;;;;;;;;;;;;;;21.53;58.18;97150.77;632730;224;44194;-61
2023/05/07 10:12:24;;;;;;;;;;;;;;;21.52;56.77;97144.59;632381;224;48944;-63
2023/05/07 10:14:53;;;;;;;;;;;;;;;21.53;58.57;97143.55;632827;224;64994;-61
2023/05/07 10:17:21;;;;;;;;;;;;;;;21.52;58.72;97141.13;632780;224;67506;-61
2023/05/07 10:19:50;;;;;;;;;;;;;;;21.52;57.88;97139.25;632764;224;64443;-61
2023/05/07 10:22:18;;;;;;;;;;;;;;;21.52;59.66;97139.25;632778;224;65155;-61
2023/05/07 10:24:48;;;;;;;;;;;;;;;21.52;57.16;97133.11;632808;224;64312;-61
2023/05/07 10:27:18;;;;;;;;;;;;;;;21.51;58.88;97134.98;632754;224;68976;-61
2023/05/07 10:29:51;;;;;;;;;;;;;;;21.50;58.36;97131.52;632862;224;43368;-61
2023/05/07 10:32:38;;;;;;;;;;;;;;;21.50;58.54;97123.50;632682;224;66747;-60
2023/05/07 10:35:10;;;;;;;;;;;;;;;21.50;58.92;97126.17;632725;224;64488;-61
2023/05/07 10:37:37;;;;;;;;;;;;;;;21.50;59.14;97126.17;632646;224;62500;-61
2023/05/07 10:40:06;;;;;;;;;;;;;;;21.49;57.42;97115.73;632760;224;67429;-61
2023/05/07 10:42:34;;;;;;;;;;;;;;;21.49;59.22;97111.18;632774;224;64868;-61
2023/05/07 10:45:16;;;;;;;;;;;;;;;21.49;59.42;97113.86;632782;224;65433;-61
2023/05/07 10:48:03;;;;;;;;;;;;;;;21.49;58.87;97111.18;632799;224;48443;-61
2023/05/07 10:50:31;;;;;;;;;;;;;;;21.49;58.93;97111.18;632767;224;67099;-61
2023/05/07 10:53:20;;;;;;;;;;;;;;;21.48;58.15;97100.77;632762;224;43811;-61
2023/05/07 10:55:54;;;;;;;;;;;;;;;21.47;57.66;97105.33;632498;224;45351;-60
2023/05/07 10:58:27;;;;;;;;;;;;;;;21.47;57.33;97108.00;631543;224;49528;-60
2023/05/07 11:00:58;;;;;;;;;;;;;;;21.47;59.40;97109.84;632584;224;44783;-61
2023/05/07 11:03:28;;;;;;;;;;;;;;;21.47;59.47;97104.50;632732;224;44218;-61
2023/05/07 11:06:13;;;;;;;;;;;;;;;21.46;58.57;97101.03;632517;224;48192;-61
2023/05/07 11:08:56;;;;;;;;;;;;;;;21.46;58.25;97097.56;632310;224;47235;-60
2023/05/07 11:11:43;;;;;;;;;;;;;;;21.45;57.69;97101.32;629750;225;47876;-60
2023/05/07 11:14:13;;;;;;;;;;;;;;;21.46;59.86;97092.22;630363;225;45066;-60
2023/05/07 11:16:45;;;;;;;;;;;;;;;21.45;58.13;97091.42;630403;224;44919;-62
2023/05/07 11:19:14;;;;;;;;;;;;;;;21.45;58.24;97085.28;629640;224;49176;-60
2023/05/07 11:21:44;;;;;;;;;;;;;;;21.45;59.29;97086.07;629765;224;45423;-60
2023/05/07 11:24:31;;;;;;;;;;;;;;;21.44;58.42;97089.83;630693;225;37351;-61
2023/05/07 11:27:01;;;;;;;;;;;;;;;21.45;59.66;97091.42;630207;224;44456;-62
2023/05/07 11:29:30;;;;;;;;;;;;;;;21.43;59.34;97082.86;630488;225;66742;-61
2023/05/07 11:32:00;;;;;;;;;;;;;;;21.44;58.45;97078.31;630445;224;42354;-61
2023/05/07 11:34:30;;;;;;;;;;;;;;;21.43;58.69;97088.21;630516;224;45227;-61
2023/05/07 11:36:59;;;;;;;;;;;;;;;21.43;59.47;97088.21;630574;225;67519;-61
2023/05/07 11:39:31;;;;;;;;;;;;;;;21.43;59.78;97080.19;630051;224;46515;-61
2023/05/07 11:41:58;;;;;;;;;;;;;;;21.42;58.11;97081.27;630436;225;66933;-61
2023/05/07 11:44:26;;;;;;;;;;;;;;;21.42;60.16;97086.62;629982;225;67132;-61
2023/05/07 11:46:53;;;;;;;;;;;;;;;21.43;58.76;97090.89;630515;225;62914;-61
2023/05/07 11:49:21;;;;;;;;;;;;;;;21.42;59.14;97081.27;619244;225;66624;-59
2023/05/07 11:51:48;;;;;;;;;;;;;;;21.43;59.10;97082.86;616301;225;66575;-59
2023/05/07 11:54:17;;;;;;;;;;;;;;;21.42;59.93;97086.62;630174;225;64903;-59
2023/05/07 11:56:45;;;;;;;;;;;;;;;21.43;59.00;97079.39;630528;225;66954;-61
2023/05/07 11:59:14;;;;;;;;;;;;;;;21.42;59.11;97072.45;630512;225;64696;-61
2023/05/07 12:01:43;;;;;;;;;;;;;;;21.41;58.14;97073.52;630481;225;62860;-61
2023/05/07 12:04:11;;;;;;;;;;;;;;;21.42;58.72;97075.92;630552;225;65182;-61
2023/05/07 12:06:38;;;;;;;;;;;;;;;21.42;58.84;97067.11;630514;225;66928;-61
2023/05/07 12:09:11;;;;;;;;;;;;;;;21.42;58.54;97069.78;630804;224;65032;-61
2023/05/07 12:11:35;;;;;;;;;;;;;;;21.41;59.23;97071.63;632568;224;67219;-61
2023/05/07 12:14:02;;;;;;;;;;;;;;;21.41;57.67;97071.63;632748;224;67022;-60
2023/05/07 12:16:31;;;;;;;;;;;;;;;21.41;59.55;97060.14;632792;224;64896;-59
2023/05/07 12:18:59;;;;;;;;;;;;;;;21.40;58.34;97055.88;632787;224;67267;-58
2023/05/07 12:21:27;;;;;;;;;;;;;;;21.40;59.60;97054.00;632758;224;66965;-58
2023/05/07 12:23:55;;;;;;;;;;;;;;;21.40;57.65;97055.88;632677;224;65031;-58
2023/05/07 12:26:22;;;;;;;;;;;;;;;21.39;58.08;97039.05;632724;224;67229;-58
2023/05/07 12:28:50;;;;;;;;;;;;;;;21.40;57.75;97050.53;632801;224;67576;-58
2023/05/07 12:31:18;;;;;;;;;;;;;;;21.39;60.85;97049.73;632740;224;64987;-58
2023/05/07 12:33:46;;;;;;;;;;;;;;;21.39;58.38;97048.91;632731;224;67190;-58
2023/05/07 12:36:14;;;;;;;;;;;;;;;21.38;58.83;97048.12;632764;223;67095;-59
2023/05/07 12:38:41;;;;;;;;;;;;;;;21.38;57.84;97041.98;632741;224;62967;-60
2023/05/07 12:41:10;;;;;;;;;;;;;;;21.38;59.13;97036.63;632808;224;64730;-60
2023/05/07 12:43:38;;;;;;;;;;;;;;;21.37;58.75;97041.19;632791;224;66810;-60
2023/05/07 12:46:07;;;;;;;;;;;;;;;21.38;58.58;97041.98;632728;224;64986;-60
2023/05/07 12:48:37;;;;;;;;;;;;;;;21.38;59.70;97042.77;632737;224;64970;-60
2023/05/07 12:51:06;;;;;;;;;;;;;;;21.37;59.00;97030.49;632726;224;67340;-60
2023/05/07 12:53:34;;;;;;;;;;;;;;;21.37;59.41;97040.36;632730;224;62954;-60
2023/05/07 12:56:01;;;;;;;;;;;;;;;21.37;59.87;97041.19;632797;224;64982;-60